createdAt,value
2022-08-24T00:05:28.686Z,20.70
2022-08-24T00:15:36.395Z,20.60
2022-08-24T00:25:43.849Z,22.80
2022-08-24T00:35:50.855Z,22.20
2022-08-24T00:45:58.084Z,20.30
2022-08-24T00:56:07.983Z,21.10
2022-08-24T01:06:34.900Z,18.90
2022-08-24T01:16:59.629Z,20.20
2022-08-24T01:27:10.174Z,17.20
2022-08-24T01:37:17.713Z,17.20
2022-08-24T01:47:25.657Z,16.90
2022-08-24T01:57:33.267Z,15.60
2022-08-24T02:07:41.171Z,15.50
2022-08-24T02:17:48.393Z,15.00
2022-08-24T02:27:54.489Z,14.20
2022-08-24T02:38:01.683Z,15.00
2022-08-24T02:48:09.160Z,13.30
2022-08-24T02:58:18.113Z,11.80
2022-08-24T03:08:26.431Z,12.50
2022-08-24T03:18:36.913Z,14.00
2022-08-24T03:28:45.299Z,12.00
2022-08-24T03:38:52.300Z,16.00
2022-08-24T03:49:00.184Z,16.70
2022-08-24T03:59:10.277Z,15.10
2022-08-24T04:09:18.457Z,16.50
2022-08-24T04:19:25.436Z,17.30
2022-08-24T04:39:39.688Z,20.30
2022-08-24T04:49:47.881Z,18.20
2022-08-24T04:59:56.558Z,18.90
2022-08-24T05:10:02.827Z,20.60
2022-08-24T05:20:12.137Z,18.60
2022-08-24T05:30:19.742Z,19.40
2022-08-24T05:40:32.551Z,20.70
2022-08-24T05:50:40.685Z,21.40
2022-08-24T06:00:49.796Z,18.60
2022-08-24T06:10:55.779Z,18.50
2022-08-24T06:21:05.563Z,15.40
2022-08-24T06:31:12.540Z,14.00
2022-08-24T06:41:18.801Z,14.10
2022-08-24T06:51:25.688Z,14.00
2022-08-24T07:01:33.765Z,14.20
2022-08-24T07:11:41.589Z,10.50
2022-08-24T07:21:48.724Z,11.40
2022-08-24T07:31:55.711Z,10.60
2022-08-24T07:42:13.039Z,10.90
2022-08-24T07:52:22.605Z,11.00
2022-08-24T08:12:42.973Z,12.80
2022-08-24T08:23:08.425Z,11.70
2022-08-24T08:33:15.658Z,9.70
2022-08-24T08:43:29.519Z,10.00
2022-08-24T08:54:05.702Z,9.30
2022-08-24T09:04:25.517Z,9.20
2022-08-24T09:25:11.580Z,10.00
2022-08-24T09:35:26.631Z,12.60
2022-08-24T09:46:01.248Z,10.60
2022-08-24T09:56:29.566Z,11.80
2022-08-24T10:06:44.619Z,11.60
2022-08-24T10:16:51.014Z,11.70
2022-08-24T10:27:21.407Z,10.50
2022-08-24T10:38:17.128Z,12.10
2022-08-24T10:48:34.571Z,12.50
2022-08-24T11:08:54.293Z,12.80
2022-08-24T11:19:04.001Z,13.10
2022-08-24T11:29:11.155Z,13.90
2022-08-24T11:39:16.361Z,12.50
2022-08-24T11:49:28.035Z,14.80
2022-08-24T12:09:45.996Z,16.20
2022-08-24T12:19:57.361Z,16.40
2022-08-24T12:30:07.275Z,16.30
2022-08-24T12:40:22.824Z,18.10
2022-08-24T12:50:32.539Z,16.20
2022-08-24T13:00:46.408Z,17.90
2022-08-24T13:10:54.060Z,18.60
2022-08-24T13:21:01.432Z,20.20
2022-08-24T13:31:20.752Z,19.80
2022-08-24T13:41:54.549Z,16.40
2022-08-24T13:52:09.519Z,17.30
2022-08-24T14:02:27.840Z,20.70
2022-08-24T14:12:45.848Z,19.70
2022-08-24T14:22:56.429Z,17.10
2022-08-24T14:33:10.947Z,16.90
2022-08-24T14:43:30.603Z,17.80
2022-08-24T14:53:50.416Z,17.30
2022-08-24T15:04:36.191Z,17.20
2022-08-24T15:14:53.854Z,14.60
2022-08-24T15:25:06.133Z,18.00
2022-08-24T15:35:24.387Z,16.40
2022-08-24T15:45:32.102Z,17.70
2022-08-24T15:55:38.265Z,18.20
2022-08-24T16:05:49.432Z,17.00
2022-08-24T16:15:59.393Z,17.50
2022-08-24T16:26:22.367Z,15.80
2022-08-24T16:36:29.765Z,15.60
2022-08-24T16:46:37.059Z,14.90
2022-08-24T17:06:50.824Z,13.30
2022-08-24T17:16:59.100Z,5.00
2022-08-24T17:27:07.356Z,3.90
2022-08-24T17:37:15.326Z,4.80
2022-08-24T17:47:22.629Z,3.00
2022-08-24T17:57:28.967Z,2.20
2022-08-24T18:07:52.588Z,4.30
2022-08-24T18:28:09.199Z,5.20
2022-08-24T18:38:16.695Z,4.90
2022-08-24T18:48:24.988Z,4.60
2022-08-24T18:58:32.398Z,3.60
2022-08-24T19:08:39.735Z,3.70
2022-08-24T19:18:49.347Z,4.10
2022-08-24T19:28:57.294Z,3.90
2022-08-24T19:39:04.993Z,5.30
2022-08-24T19:49:13.371Z,4.40
2022-08-24T19:59:22.541Z,5.10
2022-08-24T20:09:29.132Z,6.70
2022-08-24T20:19:37.764Z,6.60
2022-08-24T20:29:44.964Z,7.90
2022-08-24T20:39:53.518Z,7.30
2022-08-24T20:50:00.812Z,6.30
2022-08-24T21:00:09.742Z,6.60
2022-08-24T21:10:17.956Z,6.30
2022-08-24T21:20:25.745Z,6.50
2022-08-24T21:30:34.983Z,5.40
2022-08-24T21:40:43.331Z,5.80
2022-08-24T21:50:50.936Z,7.50
2022-08-24T22:00:59.287Z,5.60
2022-08-24T22:11:08.391Z,6.70
2022-08-24T22:21:17.667Z,5.60
2022-08-24T22:31:27.035Z,6.20
2022-08-24T22:41:34.467Z,6.40
2022-08-24T22:51:41.728Z,6.30
2022-08-24T23:01:51.876Z,4.90
2022-08-24T23:11:59.732Z,6.50
2022-08-24T23:22:08.829Z,6.10
2022-08-24T23:32:18.290Z,8.70
2022-08-24T23:42:25.694Z,7.90
2022-08-24T23:52:32.937Z,7.60
